createdAt,value
2018-02-12T00:01:51.162Z,73.17
2018-02-12T00:04:18.638Z,73.67
2018-02-12T00:06:46.185Z,74.29
2018-02-12T00:09:13.678Z,75.27
2018-02-12T00:11:41.191Z,76.05
2018-02-12T00:14:08.682Z,77.08
2018-02-12T00:16:36.143Z,77.40
2018-02-12T00:19:03.587Z,77.39
2018-02-12T00:21:31.198Z,77.87
2018-02-12T00:23:58.664Z,77.95
2018-02-12T00:26:26.172Z,78.39
2018-02-12T00:28:53.621Z,78.63
2018-02-12T00:31:21.075Z,78.57
2018-02-12T00:33:48.738Z,78.89
2018-02-12T00:36:16.290Z,79.08
2018-02-12T00:38:43.746Z,79.15
2018-02-12T00:41:11.252Z,79.39
2018-02-12T00:43:38.726Z,79.73
2018-02-12T00:46:06.173Z,79.85
2018-02-12T00:48:33.659Z,79.61
2018-02-12T00:51:01.158Z,79.72
2018-02-12T00:53:28.677Z,79.74
2018-02-12T00:55:56.125Z,79.82
2018-02-12T00:58:23.626Z,79.81
2018-02-12T01:00:51.096Z,80.07
2018-02-12T01:03:18.573Z,80.04
2018-02-12T01:05:46.071Z,80.19
2018-02-12T01:08:13.522Z,80.14
2018-02-12T01:10:40.982Z,80.09
2018-02-12T01:13:08.462Z,80.22
2018-02-12T01:15:36.252Z,80.22
2018-02-12T01:18:03.726Z,80.26
2018-02-12T01:20:31.230Z,80.44
2018-02-12T01:22:58.698Z,80.38
2018-02-12T01:25:26.154Z,80.73
2018-02-12T01:27:53.614Z,80.88
2018-02-12T01:30:22.337Z,81.02
2018-02-12T01:32:51.489Z,81.25
2018-02-12T01:35:18.958Z,81.35
2018-02-12T01:37:46.511Z,80.98
2018-02-12T01:40:14.004Z,80.81
2018-02-12T01:42:42.337Z,80.41
2018-02-12T01:45:09.807Z,80.11
2018-02-12T01:47:37.267Z,80.33
2018-02-12T01:50:16.322Z,79.13
2018-02-12T01:52:43.808Z,79.57
2018-02-12T01:55:11.320Z,79.65
2018-02-12T01:57:38.778Z,79.79
2018-02-12T02:00:06.286Z,79.87
2018-02-12T02:02:33.760Z,79.50
2018-02-12T02:05:01.248Z,79.41
2018-02-12T02:07:28.737Z,79.54
2018-02-12T02:09:56.208Z,78.99
2018-02-12T02:12:23.802Z,79.60
2018-02-12T02:14:52.193Z,79.56
2018-02-12T02:17:19.678Z,79.12
2018-02-12T02:19:47.170Z,79.43
2018-02-12T02:22:14.618Z,79.71
2018-02-12T02:24:43.042Z,79.75
2018-02-12T02:27:10.494Z,80.10
2018-02-12T02:29:37.952Z,80.26
2018-02-12T02:32:05.411Z,80.17
2018-02-12T02:34:32.862Z,79.96
2018-02-12T02:37:00.345Z,80.03
2018-02-12T02:39:27.809Z,79.96
2018-02-12T02:41:55.253Z,79.96
2018-02-12T02:44:22.725Z,79.90
2018-02-12T02:46:50.183Z,80.01
2018-02-12T02:49:17.646Z,80.30
2018-02-12T02:51:45.149Z,80.30
2018-02-12T02:54:12.602Z,80.08
2018-02-12T02:56:40.083Z,80.21
2018-02-12T02:59:07.618Z,80.13
2018-02-12T03:01:35.186Z,79.92
2018-02-12T03:04:02.666Z,80.34
2018-02-12T03:06:30.124Z,80.41
2018-02-12T03:08:57.574Z,79.78
2018-02-12T03:11:25.046Z,79.57
2018-02-12T03:13:52.514Z,79.71
2018-02-12T03:16:19.975Z,79.66
2018-02-12T03:18:47.434Z,79.55
2018-02-12T03:21:15.007Z,79.95
2018-02-12T03:23:42.466Z,80.02
2018-02-12T03:26:09.947Z,80.03
2018-02-12T03:28:37.558Z,80.32
2018-02-12T03:31:05.011Z,80.14
2018-02-12T03:33:32.483Z,80.20
2018-02-12T03:35:59.930Z,80.38
2018-02-12T03:38:27.392Z,80.57
2018-02-12T03:40:54.837Z,80.57
2018-02-12T03:43:22.295Z,80.83
2018-02-12T03:45:51.110Z,80.27
2018-02-12T03:48:18.554Z,80.38
2018-02-12T03:50:46.023Z,80.07
2018-02-12T03:53:13.475Z,79.86
2018-02-12T03:55:40.920Z,79.36
2018-02-12T03:58:08.390Z,79.39
2018-02-12T04:00:35.848Z,78.68
2018-02-12T04:03:03.301Z,78.43
2018-02-12T04:05:30.758Z,78.17
2018-02-12T04:07:58.218Z,77.95
2018-02-12T04:10:25.660Z,77.50
2018-02-12T04:12:53.141Z,76.88
2018-02-12T04:15:20.591Z,76.90
2018-02-12T04:17:48.038Z,76.56
2018-02-12T04:20:15.516Z,76.13
2018-02-12T04:22:44.626Z,75.92
2018-02-12T04:25:12.092Z,75.65
2018-02-12T04:27:39.564Z,75.53
2018-02-12T04:30:07.015Z,75.28
2018-02-12T04:32:34.475Z,75.06
2018-02-12T04:35:01.964Z,75.49
2018-02-12T04:37:29.447Z,75.64
2018-02-12T04:39:56.927Z,75.68
2018-02-12T04:42:24.799Z,75.35
2018-02-12T04:44:52.271Z,75.79
2018-02-12T04:47:19.724Z,75.39
2018-02-12T04:49:47.170Z,75.79
2018-02-12T04:52:15.283Z,75.73
2018-02-12T04:54:42.857Z,75.58
2018-02-12T04:57:10.318Z,76.17
2018-02-12T04:59:37.782Z,76.28
2018-02-12T05:02:05.230Z,76.63
2018-02-12T05:04:32.718Z,76.81
2018-02-12T05:07:00.167Z,76.91
2018-02-12T05:09:27.615Z,77.19
2018-02-12T05:11:55.134Z,77.32
2018-02-12T05:14:22.581Z,77.46
2018-02-12T05:16:50.055Z,77.72
2018-02-12T05:19:17.543Z,77.94
2018-02-12T05:21:44.991Z,77.10
2018-02-12T05:24:12.452Z,77.53
2018-02-12T05:26:39.881Z,77.53
2018-02-12T05:29:07.330Z,77.58
2018-02-12T05:31:34.795Z,77.40
2018-02-12T05:34:02.245Z,76.99
2018-02-12T05:36:30.514Z,76.66
2018-02-12T05:38:57.997Z,77.03
2018-02-12T05:41:25.465Z,77.17
2018-02-12T05:43:52.961Z,77.00
2018-02-12T05:46:20.435Z,76.78
2018-02-12T05:48:47.890Z,76.57
2018-02-12T05:51:15.471Z,76.66
2018-02-12T05:53:42.926Z,76.59
2018-02-12T05:56:10.394Z,76.25
2018-02-12T05:58:37.874Z,76.19
2018-02-12T06:01:05.339Z,76.17
2018-02-12T06:03:32.798Z,76.07
2018-02-12T06:06:00.306Z,75.39
2018-02-12T06:08:27.773Z,75.18
2018-02-12T06:10:55.239Z,75.37
2018-02-12T06:13:22.733Z,75.36
2018-02-12T06:15:50.199Z,75.19
2018-02-12T06:18:17.652Z,75.07
2018-02-12T06:20:45.105Z,74.89
2018-02-12T06:23:13.254Z,74.63
2018-02-12T06:25:40.841Z,74.55
2018-02-12T06:28:08.320Z,74.43
2018-02-12T06:30:36.076Z,74.37
2018-02-12T06:33:03.522Z,74.41
2018-02-12T06:35:30.987Z,74.36
2018-02-12T06:37:58.450Z,73.90
2018-02-12T06:40:25.895Z,73.93
2018-02-12T06:42:53.347Z,73.96
2018-02-12T06:45:20.797Z,73.89
2018-02-12T06:47:48.246Z,74.21
2018-02-12T06:50:15.754Z,73.99
2018-02-12T06:52:43.210Z,73.86
2018-02-12T06:55:10.672Z,73.64
2018-02-12T06:57:38.276Z,73.37
2018-02-12T07:00:05.737Z,73.13
2018-02-12T07:02:33.199Z,72.79
2018-02-12T07:05:00.678Z,73.21
2018-02-12T07:07:28.135Z,73.14
2018-02-12T07:09:55.603Z,72.79
2018-02-12T07:12:23.063Z,72.89
2018-02-12T07:14:50.595Z,73.17
2018-02-12T07:17:18.074Z,73.10
2018-02-12T07:19:45.520Z,72.80
2018-02-12T07:22:12.987Z,72.92
2018-02-12T07:24:40.702Z,72.77
2018-02-12T07:27:08.302Z,72.84
2018-02-12T07:29:35.770Z,72.60
2018-02-12T07:32:03.390Z,72.70
2018-02-12T07:34:31.046Z,72.22
2018-02-12T07:36:58.529Z,72.02
2018-02-12T07:39:26.192Z,72.16
2018-02-12T07:41:53.694Z,72.01
2018-02-12T07:44:21.162Z,71.51
2018-02-12T07:46:48.634Z,71.43
2018-02-12T07:49:16.098Z,71.39
2018-02-12T07:51:43.560Z,71.04
2018-02-12T07:54:10.996Z,70.98
2018-02-12T07:56:38.458Z,71.78
2018-02-12T07:59:05.909Z,71.61
2018-02-12T08:01:33.390Z,71.71
2018-02-12T08:04:00.879Z,71.36
2018-02-12T08:06:28.343Z,71.21
2018-02-12T08:08:55.893Z,71.18
2018-02-12T08:11:23.346Z,70.76
2018-02-12T08:13:50.836Z,71.10
2018-02-12T08:16:18.358Z,70.80
2018-02-12T08:18:45.923Z,70.59
2018-02-12T08:21:13.389Z,69.96
2018-02-12T08:23:40.857Z,70.17
2018-02-12T08:26:08.310Z,69.32
2018-02-12T08:28:35.792Z,69.11
2018-02-12T08:31:03.266Z,69.03
2018-02-12T08:33:30.736Z,68.84
2018-02-12T08:35:58.204Z,69.71
2018-02-12T08:38:25.658Z,70.22
2018-02-12T08:40:53.110Z,70.45
2018-02-12T08:43:20.581Z,70.16
2018-02-12T08:45:48.026Z,70.10
2018-02-12T08:48:15.485Z,69.61
2018-02-12T08:50:42.943Z,69.97
2018-02-12T08:53:10.406Z,69.76
2018-02-12T08:55:37.901Z,69.95
2018-02-12T08:58:05.360Z,69.22
2018-02-12T09:00:32.940Z,69.12
2018-02-12T09:03:00.426Z,69.60
2018-02-12T09:05:27.892Z,69.15
2018-02-12T09:07:55.370Z,69.22
2018-02-12T09:10:22.844Z,68.96
2018-02-12T09:12:50.315Z,68.71
2018-02-12T09:15:17.827Z,69.29
2018-02-12T09:17:45.288Z,69.57
2018-02-12T09:20:12.807Z,68.96
2018-02-12T09:22:41.037Z,69.25
2018-02-12T09:25:08.507Z,68.54
2018-02-12T09:27:35.980Z,68.76
2018-02-12T09:30:03.492Z,68.23
2018-02-12T09:32:30.968Z,68.32
2018-02-12T09:34:58.468Z,67.97
2018-02-12T09:37:25.923Z,67.67
2018-02-12T09:39:53.396Z,67.70
2018-02-12T09:42:20.849Z,67.63
2018-02-12T09:44:48.314Z,67.86
2018-02-12T09:47:15.805Z,67.49
2018-02-12T09:49:43.275Z,67.05
2018-02-12T09:52:10.738Z,65.97
2018-02-12T09:54:38.290Z,66.81
2018-02-12T09:57:05.760Z,66.72
2018-02-12T09:59:33.255Z,67.16
2018-02-12T10:02:00.723Z,66.50
2018-02-12T10:04:28.201Z,66.09
2018-02-12T10:06:55.710Z,66.05
2018-02-12T10:09:23.180Z,66.12
2018-02-12T10:11:50.627Z,66.36
2018-02-12T10:14:18.091Z,65.57
2018-02-12T10:16:45.614Z,65.58
2018-02-12T10:19:13.082Z,65.69
2018-02-12T10:21:40.568Z,66.47
2018-02-12T10:24:08.050Z,66.34
2018-02-12T10:26:35.506Z,66.64
2018-02-12T10:29:02.993Z,66.54
2018-02-12T10:31:30.450Z,66.46
2018-02-12T10:33:57.909Z,66.70
2018-02-12T10:36:25.648Z,66.06
2018-02-12T10:38:53.094Z,65.69
2018-02-12T10:41:20.578Z,65.66
2018-02-12T10:43:48.037Z,65.46
2018-02-12T10:46:15.507Z,65.44
2018-02-12T10:48:43.324Z,65.56
2018-02-12T10:51:10.831Z,66.13
2018-02-12T10:53:38.289Z,65.54
2018-02-12T10:56:05.768Z,65.89
2018-02-12T10:58:33.238Z,66.21
2018-02-12T11:01:00.716Z,66.51
2018-02-12T11:03:28.169Z,66.44
2018-02-12T11:05:55.633Z,66.74
2018-02-12T11:08:23.100Z,66.77
2018-02-12T11:10:50.559Z,66.69
2018-02-12T11:13:18.031Z,66.39
2018-02-12T11:15:45.490Z,66.00
2018-02-12T11:18:12.934Z,65.86
2018-02-12T11:20:40.433Z,65.87
2018-02-12T11:23:07.882Z,65.94
2018-02-12T11:25:35.344Z,66.30
2018-02-12T11:28:02.817Z,66.51
2018-02-12T11:30:30.261Z,67.01
2018-02-12T11:32:57.712Z,67.13
2018-02-12T11:35:25.178Z,66.65
2018-02-12T11:37:52.664Z,65.74
2018-02-12T11:40:20.131Z,66.02
2018-02-12T11:42:47.593Z,65.20
2018-02-12T11:45:15.038Z,65.25
2018-02-12T11:47:42.539Z,64.87
2018-02-12T11:50:09.979Z,64.81
2018-02-12T11:52:37.445Z,65.51
2018-02-12T11:55:04.945Z,65.23
2018-02-12T11:57:32.410Z,65.14
2018-02-12T11:59:59.859Z,64.64
2018-02-12T12:02:27.383Z,64.00
2018-02-12T12:04:54.846Z,64.25
2018-02-12T12:07:22.291Z,64.56
2018-02-12T12:09:49.754Z,65.30
2018-02-12T12:12:18.118Z,65.70
2018-02-12T12:14:45.582Z,65.18
2018-02-12T12:17:13.051Z,65.10
2018-02-12T12:19:40.500Z,64.94
2018-02-12T12:22:07.962Z,64.54
2018-02-12T12:24:36.047Z,64.54
2018-02-12T12:27:03.494Z,64.61
2018-02-12T12:29:30.999Z,63.83
2018-02-12T12:31:58.475Z,64.40
2018-02-12T12:34:25.942Z,64.15
2018-02-12T12:36:53.410Z,64.34
2018-02-12T12:39:20.881Z,64.07
2018-02-12T12:41:48.335Z,64.47
2018-02-12T12:44:15.805Z,64.31
2018-02-12T12:46:44.135Z,64.33
2018-02-12T12:49:11.595Z,63.62
2018-02-12T12:51:39.059Z,63.21
2018-02-12T12:54:06.506Z,62.79
2018-02-12T12:56:34.027Z,62.64
2018-02-12T12:59:01.533Z,62.44
2018-02-12T13:01:29.037Z,62.84
2018-02-12T13:03:56.483Z,62.48
2018-02-12T13:06:24.031Z,62.98
2018-02-12T13:08:51.491Z,62.43
2018-02-12T13:11:18.942Z,60.79
2018-02-12T13:13:46.391Z,60.29
2018-02-12T13:16:13.858Z,60.66
2018-02-12T13:18:41.459Z,60.41
2018-02-12T13:21:08.999Z,60.59
2018-02-12T13:23:36.477Z,60.68
2018-02-12T13:26:03.934Z,60.00
2018-02-12T13:28:31.401Z,60.08
2018-02-12T13:30:58.850Z,61.27
2018-02-12T13:33:26.339Z,61.59
2018-02-12T13:35:53.797Z,61.99
2018-02-12T13:38:21.260Z,62.54
2018-02-12T13:40:48.707Z,61.86
2018-02-12T13:43:16.165Z,61.67
2018-02-12T13:45:43.605Z,62.05
2018-02-12T13:48:11.176Z,62.18
2018-02-12T13:50:38.599Z,61.30
2018-02-12T13:53:06.048Z,60.72
2018-02-12T13:55:34.944Z,60.55
2018-02-12T13:58:02.427Z,60.70
2018-02-12T14:00:30.758Z,60.51
2018-02-12T14:02:58.202Z,60.17
2018-02-12T14:05:25.678Z,60.73
2018-02-12T14:07:53.142Z,60.04
2018-02-12T14:10:20.579Z,60.24
2018-02-12T14:12:48.016Z,60.14
2018-02-12T14:28:10.602Z,60.50
2018-02-12T14:30:38.314Z,60.71
2018-02-12T14:33:05.772Z,60.66
2018-02-12T14:35:33.282Z,60.90
2018-02-12T14:38:00.729Z,60.35
2018-02-12T14:40:28.189Z,60.58
2018-02-12T14:42:55.646Z,59.38
2018-02-12T14:45:23.106Z,59.95
2018-02-12T14:47:50.567Z,60.58
2018-02-12T14:50:18.037Z,61.23
2018-02-12T14:52:45.495Z,61.00
2018-02-12T14:55:12.946Z,61.68
2018-02-12T14:57:40.428Z,61.74
2018-02-12T15:00:07.954Z,62.27
2018-02-12T15:02:35.403Z,62.86
2018-02-12T15:05:02.860Z,63.12
2018-02-12T15:07:30.344Z,63.33
2018-02-12T15:09:57.786Z,63.73
2018-02-12T15:12:25.436Z,64.40
2018-02-12T15:14:52.933Z,64.55
2018-02-12T15:17:20.390Z,64.62
2018-02-12T15:19:47.858Z,64.74
2018-02-12T15:22:15.314Z,64.65
2018-02-12T15:24:42.796Z,66.58
2018-02-12T15:27:10.230Z,70.46
2018-02-12T15:29:37.717Z,73.41
2018-02-12T15:32:05.178Z,75.69
2018-02-12T15:34:32.637Z,77.11
2018-02-12T15:37:00.100Z,78.12
2018-02-12T15:39:27.553Z,79.37
2018-02-12T15:41:54.997Z,81.07
2018-02-12T15:44:22.463Z,81.82
2018-02-12T15:46:50.124Z,82.00
2018-02-12T15:49:17.559Z,82.35
2018-02-12T15:51:45.059Z,82.63
2018-02-12T15:54:12.550Z,83.63
2018-02-12T15:56:39.999Z,83.42
2018-02-12T15:59:07.441Z,83.62
2018-02-12T16:01:34.880Z,84.29
2018-02-12T16:04:02.345Z,84.66
2018-02-12T16:06:31.301Z,84.80
2018-02-12T16:08:58.750Z,85.00
2018-02-12T16:11:26.217Z,85.07
2018-02-12T16:13:53.679Z,85.39
2018-02-12T16:16:21.129Z,84.97
2018-02-12T16:18:48.560Z,85.02
2018-02-12T16:21:16.165Z,84.98
2018-02-12T16:23:43.639Z,85.67
2018-02-12T16:26:11.298Z,86.54
2018-02-12T16:28:38.957Z,86.97
2018-02-12T16:31:06.457Z,87.03
2018-02-12T16:33:33.891Z,87.57
2018-02-12T16:36:01.368Z,87.69
2018-02-12T16:41:02.516Z,87.45
2018-02-12T16:43:29.987Z,87.10
2018-02-12T16:45:57.429Z,86.76
2018-02-12T16:48:25.010Z,87.28
2018-02-12T16:50:53.349Z,87.06
2018-02-12T16:53:20.796Z,87.21
2018-02-12T16:55:48.257Z,86.81
2018-02-12T16:58:15.691Z,87.33
2018-02-12T17:00:43.151Z,86.90
2018-02-12T17:03:10.642Z,86.68
2018-02-12T17:05:38.119Z,86.50
2018-02-12T17:08:05.622Z,85.57
2018-02-12T17:10:33.078Z,84.83
2018-02-12T17:13:00.535Z,84.20
2018-02-12T17:15:27.998Z,83.44
2018-02-12T17:17:55.502Z,83.53
2018-02-12T17:20:22.948Z,83.54
2018-02-12T17:22:50.411Z,83.67
2018-02-12T17:25:17.866Z,83.73
2018-02-12T17:27:45.380Z,83.64
2018-02-12T17:30:12.836Z,83.40
2018-02-12T17:32:40.284Z,83.68
2018-02-12T17:35:07.752Z,83.32
2018-02-12T17:37:35.199Z,83.24
2018-02-12T17:40:02.653Z,83.72
2018-02-12T17:42:30.152Z,83.33
2018-02-12T17:44:57.651Z,83.25
2018-02-12T17:47:25.111Z,83.05
2018-02-12T17:49:52.578Z,82.31
2018-02-12T17:52:20.015Z,82.30
2018-02-12T17:54:47.500Z,82.82
2018-02-12T17:57:15.022Z,83.03
2018-02-12T17:59:42.489Z,83.01
2018-02-12T18:02:09.937Z,83.13
2018-02-12T18:04:37.445Z,83.66
2018-02-12T18:07:04.917Z,83.62
2018-02-12T18:09:32.400Z,84.03
2018-02-12T18:11:59.849Z,83.90
2018-02-12T18:14:27.325Z,84.42
2018-02-12T18:16:54.777Z,84.79
2018-02-12T18:19:22.385Z,84.82
2018-02-12T18:21:49.846Z,85.14
2018-02-12T18:24:17.300Z,85.50
2018-02-12T18:26:44.781Z,84.97
2018-02-12T18:29:12.253Z,84.85
2018-02-12T18:31:39.702Z,84.66
2018-02-12T18:34:07.148Z,84.96
2018-02-12T18:36:34.620Z,84.55
2018-02-12T18:39:02.118Z,84.07
2018-02-12T18:41:29.586Z,83.79
2018-02-12T18:43:57.119Z,84.32
2018-02-12T18:46:24.675Z,84.38
2018-02-12T18:48:52.151Z,83.43
2018-02-12T18:51:19.631Z,83.19
2018-02-12T18:53:47.080Z,82.97
2018-02-12T18:56:14.591Z,83.17
2018-02-12T18:58:42.058Z,82.83
2018-02-12T19:01:10.317Z,82.40
2018-02-12T19:03:37.834Z,81.41
2018-02-12T19:06:05.317Z,80.83
2018-02-12T19:08:32.782Z,80.30
2018-02-12T19:11:00.319Z,80.16
2018-02-12T19:13:27.776Z,79.96
2018-02-12T19:15:55.294Z,78.71
2018-02-12T19:18:22.839Z,78.38
2018-02-12T19:20:50.344Z,78.19
2018-02-12T19:23:17.835Z,77.44
2018-02-12T19:25:45.318Z,77.38
2018-02-12T19:28:12.820Z,77.33
2018-02-12T19:30:40.479Z,77.20
2018-02-12T19:33:07.940Z,76.81
2018-02-12T19:35:35.438Z,76.93
2018-02-12T19:38:02.887Z,77.14
2018-02-12T19:40:30.341Z,76.53
2018-02-12T19:42:57.864Z,76.62
2018-02-12T19:45:25.331Z,76.39
2018-02-12T19:47:52.788Z,76.65
2018-02-12T19:50:20.264Z,76.66
2018-02-12T19:52:47.737Z,76.80
2018-02-12T19:55:15.180Z,76.86
2018-02-12T19:57:43.041Z,76.86
2018-02-12T20:00:10.690Z,76.20
2018-02-12T20:02:39.084Z,76.11
2018-02-12T20:05:06.578Z,76.22
2018-02-12T20:07:34.078Z,76.65
2018-02-12T20:10:01.555Z,76.50
2018-02-12T20:12:29.135Z,76.67
2018-02-12T20:14:56.691Z,76.28
2018-02-12T20:17:24.225Z,76.36
2018-02-12T20:19:51.716Z,76.06
2018-02-12T20:22:19.169Z,76.07
2018-02-12T20:24:46.730Z,76.52
2018-02-12T20:27:14.217Z,76.24
2018-02-12T20:29:41.724Z,76.32
2018-02-12T20:32:09.262Z,76.32
2018-02-12T20:34:36.789Z,76.78
2018-02-12T20:37:04.288Z,77.07
2018-02-12T20:39:31.763Z,77.22
2018-02-12T20:41:59.290Z,77.18
2018-02-12T20:44:26.792Z,77.09
2018-02-12T20:46:54.253Z,76.83
2018-02-12T20:49:21.775Z,77.00
2018-02-12T20:51:49.229Z,77.42
2018-02-12T20:54:16.717Z,77.17
2018-02-12T20:56:44.183Z,77.14
2018-02-12T20:59:11.652Z,77.16
2018-02-12T21:01:39.186Z,76.90
2018-02-12T21:04:06.673Z,77.29
2018-02-12T21:06:34.186Z,76.92
2018-02-12T21:09:01.778Z,77.35
2018-02-12T21:11:29.248Z,77.50
2018-02-12T21:13:56.760Z,77.79
2018-02-12T21:16:24.271Z,78.06
2018-02-12T21:18:51.772Z,77.47
2018-02-12T21:21:19.259Z,77.76
2018-02-12T21:23:46.718Z,77.64
2018-02-12T21:26:14.183Z,77.97
2018-02-12T21:28:42.093Z,77.80
2018-02-12T21:31:09.569Z,77.58
2018-02-12T21:33:37.050Z,77.64
2018-02-12T21:36:04.528Z,77.61
2018-02-12T21:38:31.993Z,77.65
2018-02-12T21:40:59.454Z,77.80
2018-02-12T21:43:26.935Z,78.07
2018-02-12T21:45:54.395Z,78.47
2018-02-12T21:48:21.889Z,79.18
2018-02-12T21:50:50.214Z,79.36
2018-02-12T21:53:17.675Z,79.54
2018-02-12T21:55:45.155Z,80.13
2018-02-12T21:58:12.634Z,79.97
2018-02-12T22:00:40.127Z,79.41
2018-02-12T22:03:08.045Z,79.36
2018-02-12T22:05:35.514Z,78.85
2018-02-12T22:08:02.971Z,78.94
2018-02-12T22:10:30.466Z,78.71
2018-02-12T22:12:57.922Z,78.30
2018-02-12T22:15:25.466Z,78.20
2018-02-12T22:17:52.918Z,78.37
2018-02-12T22:20:20.410Z,78.44
2018-02-12T22:22:48.086Z,78.64
2018-02-12T22:25:15.557Z,78.70
2018-02-12T22:27:43.039Z,78.73
2018-02-12T22:30:10.627Z,78.58
2018-02-12T22:32:38.133Z,78.76
2018-02-12T22:35:05.641Z,78.89
2018-02-12T22:37:33.111Z,79.03
2018-02-12T22:40:00.580Z,79.02
2018-02-12T22:42:28.050Z,79.00
2018-02-12T22:44:55.526Z,79.24
2018-02-12T22:47:22.977Z,79.53
2018-02-12T22:49:50.456Z,79.34
2018-02-12T22:52:17.912Z,79.30
2018-02-12T22:54:45.376Z,79.37
2018-02-12T22:57:12.851Z,79.51
2018-02-12T22:59:40.335Z,79.77
2018-02-12T23:02:07.793Z,79.72
2018-02-12T23:04:35.285Z,79.82
2018-02-12T23:07:02.763Z,79.61
2018-02-12T23:09:30.276Z,79.54
2018-02-12T23:11:57.731Z,79.64
2018-02-12T23:14:25.330Z,79.70
2018-02-12T23:16:58.447Z,79.43
2018-02-12T23:19:25.914Z,79.29
2018-02-12T23:21:53.363Z,79.34
2018-02-12T23:24:20.822Z,78.60
2018-02-12T23:26:48.350Z,78.60
2018-02-12T23:29:15.836Z,78.47
2018-02-12T23:31:43.278Z,77.86
2018-02-12T23:34:10.747Z,77.92
2018-02-12T23:36:38.208Z,77.33
2018-02-12T23:39:05.659Z,77.07
2018-02-12T23:41:33.135Z,77.58
2018-02-12T23:44:00.591Z,76.77
2018-02-12T23:46:28.047Z,77.24
2018-02-12T23:48:55.530Z,76.46
2018-02-12T23:51:22.988Z,76.63
2018-02-12T23:53:50.426Z,75.73
2018-02-12T23:56:17.914Z,75.48
2018-02-12T23:58:45.383Z,75.36
